Time;durP1;ratioP1;P1;durP2;ratioP2;P2;SDS_P1;SDS_P2;PMS_P1;PMS_P2;Temp;Humidity;BMP_temperature;BMP_pressure;BME280_temperature;BME280_humidity;BME280_pressure;Samples;Min_cycle;Max_cycle;Signal;HPM_P1;HPM_P2
2023/02/07 00:01:45;;;;;;;6.72;2.10;;;;;;;;;;4982368;28;20072;-65
2023/02/07 00:04:37;;;;;;;7.40;1.90;;;;;;;;;;4973100;28;20058;-65
2023/02/07 00:07:07;;;;;;;8.52;1.90;;;;;;;;;;4923333;28;20558;-66
2023/02/07 00:09:37;;;;;;;11.27;2.42;;;;;;;;;;4969243;28;20062;-66
2023/02/07 00:12:08;;;;;;;12.23;2.25;;;;;;;;;;4938632;28;20058;-66
2023/02/07 00:14:41;;;;;;;7.97;2.33;;;;;;;;;;4972194;28;20059;-66
2023/02/07 00:17:11;;;;;;;4.75;2.00;;;;;;;;;;4956158;28;20062;-66
2023/02/07 00:19:43;;;;;;;5.65;2.20;;;;;;;;;;4972017;28;20050;-65
2023/02/07 00:22:13;;;;;;;5.78;1.75;;;;;;;;;;4940221;28;20058;-65
2023/02/07 00:24:43;;;;;;;6.78;1.98;;;;;;;;;;4938997;28;20066;-66
2023/02/07 00:27:13;;;;;;;6.10;1.63;;;;;;;;;;4987648;28;20058;-65
2023/02/07 00:29:43;;;;;;;7.22;2.13;;;;;;;;;;4940095;28;20058;-65
2023/02/07 00:32:13;;;;;;;8.93;2.05;;;;;;;;;;4955434;28;20498;-65
2023/02/07 00:34:46;;;;;;;7.68;1.80;;;;;;;;;;4971744;28;20070;-66
2023/02/07 00:37:18;;;;;;;8.57;1.92;;;;;;;;;;4952022;28;20054;-65
2023/02/07 00:39:48;;;;;;;9.43;2.10;;;;;;;;;;4952238;28;20087;-65
2023/02/07 00:42:18;;;;;;;6.47;2.03;;;;;;;;;;4952301;28;20098;-66
2023/02/07 00:44:48;;;;;;;8.73;2.47;;;;;;;;;;4971988;28;20438;-66
2023/02/07 00:47:18;;;;;;;9.13;2.22;;;;;;;;;;4988410;28;20054;-65
2023/02/07 00:49:48;;;;;;;7.35;2.25;;;;;;;;;;4969837;28;20189;-65
2023/02/07 00:52:19;;;;;;;6.70;2.22;;;;;;;;;;4971100;28;20047;-65
2023/02/07 00:54:49;;;;;;;7.57;2.20;;;;;;;;;;4971440;28;20078;-65
2023/02/07 00:57:19;;;;;;;7.32;2.30;;;;;;;;;;4932495;29;20516;-65
2023/02/07 00:59:49;;;;;;;4.28;2.22;;;;;;;;;;4932640;29;20059;-65
2023/02/07 01:02:19;;;;;;;6.80;2.30;;;;;;;;;;4949936;29;20059;-66
2023/02/07 01:04:50;;;;;;;8.48;2.10;;;;;;;;;;4904342;29;20240;-65
2023/02/07 01:07:21;;;;;;;6.53;2.20;;;;;;;;;;4951765;29;20063;-66
2023/02/07 01:09:51;;;;;;;8.05;2.40;;;;;;;;;;4951892;29;20055;-65
2023/02/07 01:12:23;;;;;;;3.58;1.77;;;;;;;;;;4951744;29;20720;-65
2023/02/07 01:14:53;;;;;;;4.90;2.60;;;;;;;;;;4928951;28;20199;-66
2023/02/07 01:17:23;;;;;;;7.85;2.33;;;;;;;;;;4969784;28;20058;-65
2023/02/07 01:20:00;;;;;;;8.18;2.00;;;;;;;;;;4971044;28;20507;-65
2023/02/07 01:22:30;;;;;;;6.63;2.22;;;;;;;;;;4957101;28;20047;-65
2023/02/07 01:25:00;;;;;;;5.72;2.42;;;;;;;;;;4941834;28;20054;-65
2023/02/07 01:27:30;;;;;;;7.13;2.60;;;;;;;;;;4980341;28;20050;-65
2023/02/07 01:30:01;;;;;;;6.90;2.67;;;;;;;;;;5014359;28;20057;-65
2023/02/07 01:32:33;;;;;;;5.32;2.20;;;;;;;;;;5000051;28;20049;-65
2023/02/07 01:35:05;;;;;;;10.02;2.35;;;;;;;;;;5071432;28;20447;-66
2023/02/07 01:37:35;;;;;;;6.45;2.28;;;;;;;;;;5048836;28;20060;-65
2023/02/07 01:40:07;;;;;;;7.07;2.58;;;;;;;;;;5032411;28;20060;-66
2023/02/07 01:42:37;;;;;;;4.57;2.40;;;;;;;;;;4992539;28;20053;-65
2023/02/07 01:45:17;;;;;;;7.43;2.67;;;;;;;;;;4989624;28;20050;-65
2023/02/07 01:47:49;;;;;;;14.90;2.70;;;;;;;;;;4989906;28;20435;-65
2023/02/07 01:50:20;;;;;;;10.95;3.03;;;;;;;;;;4990011;28;20070;-66
2023/02/07 01:52:50;;;;;;;10.95;3.15;;;;;;;;;;4989478;28;20491;-65
2023/02/07 01:55:29;;;;;;;5.32;2.58;;;;;;;;;;4989808;28;20054;-65
2023/02/07 01:58:02;;;;;;;8.80;2.65;;;;;;;;;;4989804;28;20062;-65
2023/02/07 02:00:33;;;;;;;6.50;2.55;;;;;;;;;;4989424;28;20534;-65
2023/02/07 02:03:04;;;;;;;7.10;2.70;;;;;;;;;;4979312;28;20392;-65
2023/02/07 02:05:36;;;;;;;7.82;2.55;;;;;;;;;;4983226;28;20499;-65
2023/02/07 02:08:06;;;;;;;6.38;2.40;;;;;;;;;;4989651;28;20055;-66
2023/02/07 02:10:47;;;;;;;11.77;3.25;;;;;;;;;;4989395;28;20066;-66
2023/02/07 02:13:38;;;;;;;8.93;2.50;;;;;;;;;;4969466;28;20061;-66
2023/02/07 02:16:29;;;;;;;10.25;2.90;;;;;;;;;;4987332;28;20057;-66
2023/02/07 02:19:40;;;;;;;8.00;3.00;;;;;;;;;;4960412;28;20105;-65
2023/02/07 02:22:35;;;;;;;11.07;2.88;;;;;;;;;;4968797;28;20058;-65
2023/02/07 02:25:26;;;;;;;11.80;3.92;;;;;;;;;;4969690;28;20519;-65
2023/02/07 02:28:35;;;;;;;8.18;2.95;;;;;;;;;;4969299;28;20057;-65
2023/02/07 02:31:12;;;;;;;9.13;3.90;;;;;;;;;;4936050;29;20051;-65
2023/02/07 02:34:02;;;;;;;7.40;3.42;;;;;;;;;;4926002;29;20035;-65
2023/02/07 02:36:50;;;;;;;9.80;3.53;;;;;;;;;;4950415;29;20055;-65
2023/02/07 02:39:38;;;;;;;11.75;3.17;;;;;;;;;;4988485;28;20051;-65
2023/02/07 02:42:37;;;;;;;8.98;3.75;;;;;;;;;;4969588;28;20050;-65
2023/02/07 02:45:18;;;;;;;10.80;3.30;;;;;;;;;;4928439;29;20071;-65
2023/02/07 02:47:50;;;;;;;9.00;3.38;;;;;;;;;;4849382;29;20045;-65
2023/02/07 02:50:27;;;;;;;9.77;3.33;;;;;;;;;;4893373;29;20399;-65
2023/02/07 02:52:57;;;;;;;11.65;3.38;;;;;;;;;;4893322;29;20056;-65
2023/02/07 02:55:53;;;;;;;8.75;3.38;;;;;;;;;;4874209;29;20056;-65
2023/02/07 02:58:42;;;;;;;7.78;3.53;;;;;;;;;;4860126;29;20057;-65
2023/02/07 03:01:45;;;;;;;14.02;3.55;;;;;;;;;;4908264;29;20483;-65
2023/02/07 03:04:30;;;;;;;8.90;3.15;;;;;;;;;;4873968;29;20391;-65
2023/02/07 03:07:15;;;;;;;8.57;3.75;;;;;;;;;;4889950;29;20398;-65
2023/02/07 03:09:54;;;;;;;9.82;3.20;;;;;;;;;;4874789;29;20065;-65
2023/02/07 03:12:58;;;;;;;10.93;3.30;;;;;;;;;;4893198;29;20101;-65
2023/02/07 03:15:56;;;;;;;10.38;3.55;;;;;;;;;;4883657;29;20053;-65
2023/02/07 03:18:58;;;;;;;7.72;3.53;;;;;;;;;;4855637;29;20049;-65
2023/02/07 03:22:01;;;;;;;10.18;3.90;;;;;;;;;;4855677;29;20057;-65
2023/02/07 03:24:35;;;;;;;7.43;3.60;;;;;;;;;;4855257;29;20065;-66
2023/02/07 03:27:10;;;;;;;9.32;4.10;;;;;;;;;;4847909;29;20062;-65
2023/02/07 03:29:46;;;;;;;11.30;4.25;;;;;;;;;;4855858;29;20407;-65
2023/02/07 03:32:18;;;;;;;10.85;3.47;;;;;;;;;;4842677;29;20068;-65
2023/02/07 03:35:00;;;;;;;10.35;4.00;;;;;;;;;;4874488;29;20076;-65
2023/02/07 03:37:36;;;;;;;10.95;4.18;;;;;;;;;;4855829;29;20442;-65
2023/02/07 03:40:09;;;;;;;8.43;3.75;;;;;;;;;;4916128;29;20171;-65
2023/02/07 03:43:03;;;;;;;14.75;4.30;;;;;;;;;;4956544;28;20670;-65
2023/02/07 03:45:33;;;;;;;10.93;3.78;;;;;;;;;;4974245;28;20059;-65
2023/02/07 03:48:04;;;;;;;15.10;3.72;;;;;;;;;;4992127;28;20058;-65
2023/02/07 03:50:34;;;;;;;11.32;3.97;;;;;;;;;;5012593;28;20057;-65
2023/02/07 03:53:04;;;;;;;10.30;3.42;;;;;;;;;;5011219;28;20042;-65
2023/02/07 03:55:35;;;;;;;10.65;3.35;;;;;;;;;;4995542;28;20057;-65
2023/02/07 03:58:07;;;;;;;7.00;3.55;;;;;;;;;;5010995;28;20061;-65
2023/02/07 04:00:37;;;;;;;10.88;3.88;;;;;;;;;;5011450;28;20505;-65
2023/02/07 04:03:07;;;;;;;7.75;3.58;;;;;;;;;;5011570;28;20477;-65
2023/02/07 04:05:38;;;;;;;8.30;3.35;;;;;;;;;;5011133;28;20050;-65
2023/02/07 04:08:08;;;;;;;11.13;3.55;;;;;;;;;;5078844;28;20823;-65
2023/02/07 04:10:38;;;;;;;9.27;3.22;;;;;;;;;;5038235;28;20063;-66
2023/02/07 04:13:08;;;;;;;13.02;3.67;;;;;;;;;;5071182;28;20064;-65
2023/02/07 04:15:38;;;;;;;8.35;3.45;;;;;;;;;;5037680;28;20053;-66
2023/02/07 04:18:08;;;;;;;7.30;2.95;;;;;;;;;;5022994;28;20456;-65
2023/02/07 04:20:39;;;;;;;8.40;3.53;;;;;;;;;;5043063;28;20056;-65
2023/02/07 04:23:09;;;;;;;7.50;2.97;;;;;;;;;;5091162;28;20044;-65
2023/02/07 04:25:39;;;;;;;11.75;3.50;;;;;;;;;;5057191;28;20044;-65
2023/02/07 04:28:09;;;;;;;11.52;3.88;;;;;;;;;;5060158;28;20047;-66
2023/02/07 04:30:39;;;;;;;12.07;3.20;;;;;;;;;;5084011;28;20047;-65
2023/02/07 04:33:09;;;;;;;16.02;3.80;;;;;;;;;;5029221;28;20054;-65
2023/02/07 04:35:39;;;;;;;9.25;3.38;;;;;;;;;;5094365;28;20060;-65
2023/02/07 04:38:09;;;;;;;10.02;2.97;;;;;;;;;;5104401;28;20043;-65
2023/02/07 04:40:39;;;;;;;8.75;2.75;;;;;;;;;;5074289;28;20052;-65
2023/02/07 04:43:09;;;;;;;7.35;3.13;;;;;;;;;;5024862;28;20067;-65
2023/02/07 04:45:39;;;;;;;9.25;3.20;;;;;;;;;;5093345;28;20044;-65
2023/02/07 04:48:09;;;;;;;8.07;2.78;;;;;;;;;;5099078;28;20054;-66
2023/02/07 04:50:39;;;;;;;7.03;2.92;;;;;;;;;;5060367;28;20051;-65
2023/02/07 04:53:09;;;;;;;9.18;4.00;;;;;;;;;;5113171;28;20040;-65
2023/02/07 04:55:39;;;;;;;7.65;2.95;;;;;;;;;;5113160;28;20044;-65
2023/02/07 04:58:09;;;;;;;10.02;3.25;;;;;;;;;;5113012;28;20048;-65
2023/02/07 05:00:39;;;;;;;8.63;2.78;;;;;;;;;;5113237;28;20035;-66
2023/02/07 05:03:09;;;;;;;9.18;2.65;;;;;;;;;;5076944;28;20059;-66
2023/02/07 05:05:41;;;;;;;7.93;2.60;;;;;;;;;;5078326;28;20051;-65
2023/02/07 05:08:12;;;;;;;8.50;3.15;;;;;;;;;;5043281;28;20051;-66
2023/02/07 05:10:42;;;;;;;5.07;2.75;;;;;;;;;;5033369;28;20060;-66
2023/02/07 05:13:12;;;;;;;8.90;2.97;;;;;;;;;;5049831;28;20540;-66
2023/02/07 05:15:42;;;;;;;7.78;3.03;;;;;;;;;;5049453;28;20096;-65
2023/02/07 05:18:12;;;;;;;7.20;2.70;;;;;;;;;;5049654;28;20041;-65
2023/02/07 05:20:43;;;;;;;8.55;2.75;;;;;;;;;;5067644;28;20063;-66
2023/02/07 05:23:13;;;;;;;8.68;2.72;;;;;;;;;;5069632;28;20056;-65
2023/02/07 05:25:43;;;;;;;6.65;2.90;;;;;;;;;;5029630;28;20052;-66
2023/02/07 05:28:13;;;;;;;7.53;3.00;;;;;;;;;;5009376;28;20053;-65
2023/02/07 05:30:43;;;;;;;9.48;2.83;;;;;;;;;;5009623;28;20073;-66
2023/02/07 05:33:13;;;;;;;7.30;2.92;;;;;;;;;;5009692;28;20054;-66
2023/02/07 05:35:45;;;;;;;7.15;2.35;;;;;;;;;;4951369;28;20059;-65
2023/02/07 05:38:17;;;;;;;6.65;2.78;;;;;;;;;;4951363;28;20135;-66
2023/02/07 05:40:48;;;;;;;6.57;3.00;;;;;;;;;;4932292;29;20063;-66
2023/02/07 05:43:18;;;;;;;8.68;2.78;;;;;;;;;;4932052;29;20071;-65
2023/02/07 05:45:48;;;;;;;7.35;2.70;;;;;;;;;;4916459;29;20055;-66
2023/02/07 05:48:19;;;;;;;8.80;2.85;;;;;;;;;;4935246;28;20533;-66
2023/02/07 05:50:49;;;;;;;5.80;2.40;;;;;;;;;;4987375;28;20073;-65
2023/02/07 05:53:19;;;;;;;7.45;2.70;;;;;;;;;;4989818;28;20062;-66
2023/02/07 05:55:51;;;;;;;6.18;2.47;;;;;;;;;;4989756;28;20058;-65
2023/02/07 05:58:21;;;;;;;8.52;2.63;;;;;;;;;;4926206;28;20089;-66
2023/02/07 06:00:55;;;;;;;6.93;2.60;;;;;;;;;;4954994;28;20059;-66
2023/02/07 06:03:25;;;;;;;6.43;2.03;;;;;;;;;;4989357;28;20046;-66
2023/02/07 06:05:55;;;;;;;9.90;2.75;;;;;;;;;;5029713;28;20065;-66
2023/02/07 06:08:25;;;;;;;5.78;2.17;;;;;;;;;;5015361;28;20055;-66
2023/02/07 06:10:55;;;;;;;7.78;2.20;;;;;;;;;;5061313;28;20559;-66
2023/02/07 06:13:25;;;;;;;5.97;2.05;;;;;;;;;;5091629;28;20067;-66
2023/02/07 06:15:55;;;;;;;6.30;2.30;;;;;;;;;;5075855;28;20062;-66
2023/02/07 06:18:25;;;;;;;6.35;2.47;;;;;;;;;;5111794;28;20511;-65
2023/02/07 06:20:55;;;;;;;6.18;2.03;;;;;;;;;;5111316;28;20047;-66
2023/02/07 06:23:25;;;;;;;4.65;2.33;;;;;;;;;;5111339;28;20046;-65
2023/02/07 06:25:55;;;;;;;8.43;2.38;;;;;;;;;;5048733;28;20068;-66
2023/02/07 06:28:25;;;;;;;9.18;2.40;;;;;;;;;;5048330;28;20060;-65
2023/02/07 06:30:55;;;;;;;7.60;2.00;;;;;;;;;;4959826;28;20095;-66
2023/02/07 06:33:25;;;;;;;8.40;2.15;;;;;;;;;;5004918;28;20054;-66
2023/02/07 06:35:55;;;;;;;4.32;2.25;;;;;;;;;;4989179;28;20054;-66
2023/02/07 06:38:26;;;;;;;7.03;2.30;;;;;;;;;;4989159;28;20054;-65
2023/02/07 06:40:56;;;;;;;4.22;2.13;;;;;;;;;;4988992;28;20058;-65
2023/02/07 06:43:26;;;;;;;9.52;2.40;;;;;;;;;;4989245;28;20066;-65
2023/02/07 06:45:56;;;;;;;9.50;2.28;;;;;;;;;;4989238;28;20054;-65
2023/02/07 06:48:26;;;;;;;4.82;2.15;;;;;;;;;;4989269;28;20054;-66
2023/02/07 06:50:56;;;;;;;5.28;2.58;;;;;;;;;;4972136;28;20070;-65
2023/02/07 06:53:28;;;;;;;4.97;2.10;;;;;;;;;;4940664;28;20061;-65
2023/02/07 06:55:59;;;;;;;5.15;2.35;;;;;;;;;;4942754;28;20051;-66
2023/02/07 06:58:30;;;;;;;7.25;2.70;;;;;;;;;;4975890;28;20054;-66
2023/02/07 07:01:02;;;;;;;8.80;2.20;;;;;;;;;;5008744;28;20054;-65
2023/02/07 07:03:32;;;;;;;6.70;2.22;;;;;;;;;;5008355;28;20077;-65
2023/02/07 07:06:01;;;;;;;6.90;2.75;;;;;;;;;;5008710;28;20049;-66
2023/02/07 07:08:33;;;;;;;14.30;3.00;;;;;;;;;;5027717;28;20053;-67
2023/02/07 07:11:03;;;;;;;9.80;2.67;;;;;;;;;;4989821;28;20049;-66
2023/02/07 07:13:34;;;;;;;6.93;2.65;;;;;;;;;;5080557;28;20068;-66
2023/02/07 07:16:04;;;;;;;7.80;2.58;;;;;;;;;;5080636;28;20060;-66
2023/02/07 07:18:37;;;;;;;6.07;2.38;;;;;;;;;;5092414;28;20384;-66
2023/02/07 07:21:07;;;;;;;7.40;2.40;;;;;;;;;;5092403;28;20450;-66
2023/02/07 07:23:38;;;;;;;4.22;1.88;;;;;;;;;;5078425;28;20550;-66
2023/02/07 07:26:09;;;;;;;5.50;2.20;;;;;;;;;;5071787;28;20108;-66
2023/02/07 07:28:38;;;;;;;9.68;2.40;;;;;;;;;;5071793;28;20056;-66
2023/02/07 07:31:10;;;;;;;10.48;2.50;;;;;;;;;;5055252;28;20064;-66
2023/02/07 07:33:41;;;;;;;7.47;1.90;;;;;;;;;;5063457;28;20048;-66
2023/02/07 07:36:12;;;;;;;7.95;3.88;;;;;;;;;;5081958;28;20057;-66
2023/02/07 07:38:42;;;;;;;9.23;2.42;;;;;;;;;;5074539;28;20052;-66
2023/02/07 07:41:15;;;;;;;9.43;2.45;;;;;;;;;;5073688;28;20053;-66
2023/02/07 07:43:46;;;;;;;7.05;2.15;;;;;;;;;;5083881;28;20060;-66
2023/02/07 07:46:16;;;;;;;7.60;2.25;;;;;;;;;;5113929;28;20040;-66
2023/02/07 07:48:46;;;;;;;6.35;2.30;;;;;;;;;;5095397;28;20055;-66
2023/02/07 07:51:16;;;;;;;9.52;2.50;;;;;;;;;;5114717;28;20399;-66
2023/02/07 07:53:45;;;;;;;7.65;2.75;;;;;;;;;;5114286;28;20044;-66
2023/02/07 07:56:16;;;;;;;9.48;1.98;;;;;;;;;;5095540;28;20507;-66
2023/02/07 07:58:47;;;;;;;6.03;1.92;;;;;;;;;;5091266;28;20151;-65
2023/02/07 08:01:17;;;;;;;4.90;1.98;;;;;;;;;;5091510;28;20056;-66
2023/02/07 08:03:47;;;;;;;9.68;2.28;;;;;;;;;;5056746;28;20045;-66
2023/02/07 08:06:17;;;;;;;7.13;1.92;;;;;;;;;;5057713;28;20063;-66
2023/02/07 08:08:47;;;;;;;32.65;3.85;;;;;;;;;;5024456;28;20051;-65
2023/02/07 08:11:20;;;;;;;22.33;2.78;;;;;;;;;;5058714;28;20052;-65
2023/02/07 08:13:50;;;;;;;4.90;1.88;;;;;;;;;;5039738;28;20052;-66
2023/02/07 08:16:20;;;;;;;10.60;2.33;;;;;;;;;;5037287;28;20044;-65
2023/02/07 08:18:50;;;;;;;9.10;2.60;;;;;;;;;;4998387;28;20056;-65
2023/02/07 08:21:20;;;;;;;5.53;2.38;;;;;;;;;;5014942;28;20062;-65
2023/02/07 08:23:51;;;;;;;4.20;2.05;;;;;;;;;;5010761;28;20046;-65
2023/02/07 08:26:21;;;;;;;4.57;2.05;;;;;;;;;;5010165;28;20502;-65
2023/02/07 08:28:51;;;;;;;3.10;1.55;;;;;;;;;;5011034;28;20133;-65
2023/02/07 08:31:21;;;;;;;9.43;2.17;;;;;;;;;;5011063;28;20525;-65
2023/02/07 08:33:52;;;;;;;5.00;2.10;;;;;;;;;;5011065;28;20046;-65
2023/02/07 08:36:23;;;;;;;11.13;2.40;;;;;;;;;;5010211;28;20470;-65
2023/02/07 08:38:53;;;;;;;12.45;2.30;;;;;;;;;;5010885;28;20053;-65
2023/02/07 08:41:23;;;;;;;4.97;2.10;;;;;;;;;;4994526;28;20057;-65
2023/02/07 08:43:53;;;;;;;4.30;2.45;;;;;;;;;;5010779;28;20426;-65
2023/02/07 08:46:23;;;;;;;4.40;1.85;;;;;;;;;;5013856;28;20049;-65
2023/02/07 08:48:54;;;;;;;6.05;2.10;;;;;;;;;;4998016;28;20060;-65
2023/02/07 08:51:25;;;;;;;7.57;2.00;;;;;;;;;;5010460;28;20068;-65
2023/02/07 08:53:55;;;;;;;5.97;2.10;;;;;;;;;;5010566;28;20065;-65
2023/02/07 08:56:25;;;;;;;5.15;1.83;;;;;;;;;;5028851;28;20057;-65
2023/02/07 08:58:55;;;;;;;7.18;2.80;;;;;;;;;;5050000;28;20057;-65
2023/02/07 09:01:25;;;;;;;6.63;2.63;;;;;;;;;;5059480;28;20049;-65
2023/02/07 09:03:57;;;;;;;6.07;2.72;;;;;;;;;;5037651;28;20052;-64
2023/02/07 09:06:27;;;;;;;5.28;2.40;;;;;;;;;;5069372;28;20051;-64
2023/02/07 09:08:57;;;;;;;11.57;2.90;;;;;;;;;;5019937;28;20404;-64
2023/02/07 09:11:28;;;;;;;6.32;2.80;;;;;;;;;;5069946;28;20404;-64
2023/02/07 09:13:58;;;;;;;8.20;2.65;;;;;;;;;;5037226;28;20658;-64
2023/02/07 09:16:29;;;;;;;6.35;2.45;;;;;;;;;;5034872;28;20526;-65
2023/02/07 09:18:59;;;;;;;4.30;1.90;;;;;;;;;;5069800;28;20045;-65
2023/02/07 09:21:30;;;;;;;4.70;2.00;;;;;;;;;;5069822;28;20040;-65
2023/02/07 09:24:00;;;;;;;8.55;2.33;;;;;;;;;;5053189;28;20056;-65
2023/02/07 09:26:34;;;;;;;7.15;2.10;;;;;;;;;;5051123;28;20059;-65
2023/02/07 09:29:05;;;;;;;7.32;3.03;;;;;;;;;;5060868;28;20416;-65
2023/02/07 09:31:35;;;;;;;5.88;2.53;;;;;;;;;;5036812;28;20064;-64
2023/02/07 09:34:06;;;;;;;5.03;2.63;;;;;;;;;;5071730;28;20056;-64
2023/02/07 09:36:38;;;;;;;12.80;2.35;;;;;;;;;;5053419;28;20072;-64
2023/02/07 09:39:09;;;;;;;19.02;2.70;;;;;;;;;;5071125;28;20055;-64
2023/02/07 09:41:47;;;;;;;14.52;2.53;;;;;;;;;;5071723;28;20045;-65
2023/02/07 09:44:46;;;;;;;5.47;2.20;;;;;;;;;;5052795;28;20071;-65
2023/02/07 09:47:23;;;;;;;8.20;2.28;;;;;;;;;;5071126;28;20056;-65
2023/02/07 09:50:20;;;;;;;8.27;2.55;;;;;;;;;;5089470;28;20067;-65
2023/02/07 09:52:56;;;;;;;9.02;2.30;;;;;;;;;;5091920;28;20048;-65
2023/02/07 09:55:34;;;;;;;8.45;3.22;;;;;;;;;;5091935;28;20565;-65
2023/02/07 09:58:36;;;;;;;10.27;3.72;;;;;;;;;;5072189;28;20063;-66
2023/02/07 10:01:18;;;;;;;15.23;3.70;;;;;;;;;;4969730;28;20063;-64
2023/02/07 10:04:13;;;;;;;8.02;4.53;;;;;;;;;;4970455;28;20455;-64
2023/02/07 10:06:49;;;;;;;12.43;3.25;;;;;;;;;;4951117;29;20059;-64
2023/02/07 10:09:24;;;;;;;18.40;3.55;;;;;;;;;;4938448;29;20519;-64
2023/02/07 10:12:31;;;;;;;11.20;3.10;;;;;;;;;;4946936;29;20064;-65
2023/02/07 10:15:24;;;;;;;9.05;2.83;;;;;;;;;;4931960;29;20554;-65
2023/02/07 10:18:30;;;;;;;7.45;2.88;;;;;;;;;;4931470;29;20062;-65
2023/02/07 10:21:16;;;;;;;8.40;3.13;;;;;;;;;;4912452;29;20067;-65
2023/02/07 10:24:07;;;;;;;7.18;3.13;;;;;;;;;;4891803;29;20056;-65
2023/02/07 10:26:52;;;;;;;9.85;3.05;;;;;;;;;;4880756;29;20052;-64
2023/02/07 10:29:46;;;;;;;7.43;3.50;;;;;;;;;;4910954;29;20040;-64
2023/02/07 10:32:23;;;;;;;12.32;3.80;;;;;;;;;;4912014;29;20055;-65
2023/02/07 10:35:00;;;;;;;9.88;3.92;;;;;;;;;;4912305;29;20374;-64
2023/02/07 10:37:37;;;;;;;12.95;4.32;;;;;;;;;;4924723;28;20530;-66
2023/02/07 10:40:23;;;;;;;6.95;3.28;;;;;;;;;;4930306;29;20058;-65
2023/02/07 10:43:02;;;;;;;9.35;3.55;;;;;;;;;;4937094;28;20058;-65
2023/02/07 10:45:32;;;;;;;9.00;3.97;;;;;;;;;;4968866;28;20438;-64
2023/02/07 10:48:18;;;;;;;12.20;5.53;;;;;;;;;;4965364;28;20070;-65
2023/02/07 10:50:48;;;;;;;7.60;3.50;;;;;;;;;;4965678;28;20062;-64
2023/02/07 10:53:50;;;;;;;9.85;3.60;;;;;;;;;;4973978;28;20054;-64
2023/02/07 10:56:26;;;;;;;12.07;4.70;;;;;;;;;;4925588;28;20523;-64
2023/02/07 10:58:58;;;;;;;16.27;5.28;;;;;;;;;;4991739;28;20520;-64
2023/02/07 11:01:31;;;;;;;11.73;5.47;;;;;;;;;;5026368;28;20068;-65
2023/02/07 11:04:02;;;;;;;17.13;6.05;;;;;;;;;;4991092;28;20047;-64
2023/02/07 11:06:33;;;;;;;10.48;5.40;;;;;;;;;;4992862;28;20058;-65
2023/02/07 11:09:22;;;;;;;11.65;5.85;;;;;;;;;;4993003;28;20062;-64
2023/02/07 11:11:54;;;;;;;11.90;5.35;;;;;;;;;;4992577;28;20058;-64
2023/02/07 11:14:26;;;;;;;12.63;6.00;;;;;;;;;;4993111;28;20038;-64
2023/02/07 11:17:00;;;;;;;9.23;5.15;;;;;;;;;;4998276;28;20046;-64
2023/02/07 11:19:30;;;;;;;13.55;4.97;;;;;;;;;;5032045;28;20416;-65
2023/02/07 11:22:30;;;;;;;11.05;4.75;;;;;;;;;;5032013;28;20061;-64
2023/02/07 11:25:04;;;;;;;9.75;4.88;;;;;;;;;;4972607;28;20063;-65
2023/02/07 11:27:40;;;;;;;12.73;4.95;;;;;;;;;;4972540;28;20153;-64
2023/02/07 11:30:21;;;;;;;13.38;4.93;;;;;;;;;;4893519;28;20054;-65
2023/02/07 11:33:04;;;;;;;10.98;4.53;;;;;;;;;;4972459;28;20054;-65
2023/02/07 11:35:35;;;;;;;7.80;3.95;;;;;;;;;;4972375;28;20418;-64
2023/02/07 11:38:13;;;;;;;8.82;3.60;;;;;;;;;;4990952;28;20569;-64
2023/02/07 11:40:46;;;;;;;9.07;3.53;;;;;;;;;;4976374;28;20465;-64
2023/02/07 11:43:21;;;;;;;7.93;3.83;;;;;;;;;;4978968;28;20430;-64
2023/02/07 11:45:57;;;;;;;7.05;2.72;;;;;;;;;;4979524;28;20045;-64
2023/02/07 11:48:31;;;;;;;8.02;3.15;;;;;;;;;;5011330;28;20053;-64
2023/02/07 11:51:03;;;;;;;12.60;2.80;;;;;;;;;;5011242;28;20053;-64
2023/02/07 11:53:56;;;;;;;5.07;2.10;;;;;;;;;;5011270;28;20490;-65
2023/02/07 11:56:38;;;;;;;6.20;2.67;;;;;;;;;;5011499;28;20395;-64
2023/02/07 11:59:27;;;;;;;3.83;1.85;;;;;;;;;;4994451;28;20046;-65
2023/02/07 12:02:02;;;;;;;5.90;2.15;;;;;;;;;;5066202;28;20059;-65
2023/02/07 12:04:36;;;;;;;6.78;2.58;;;;;;;;;;5093749;28;20055;-66
2023/02/07 12:07:12;;;;;;;6.95;2.97;;;;;;;;;;5074685;28;20056;-65
2023/02/07 12:10:13;;;;;;;5.93;1.85;;;;;;;;;;5043602;28;20052;-64
2023/02/07 12:12:50;;;;;;;10.32;2.53;;;;;;;;;;5016254;28;20493;-64
2023/02/07 12:15:29;;;;;;;8.05;2.22;;;;;;;;;;4982119;28;20066;-64
2023/02/07 12:18:05;;;;;;;4.43;1.60;;;;;;;;;;5014034;28;20060;-64
2023/02/07 12:20:46;;;;;;;7.93;2.10;;;;;;;;;;5010638;28;20056;-64
2023/02/07 12:23:45;;;;;;;6.95;1.95;;;;;;;;;;4994609;28;20050;-64
2023/02/07 12:26:31;;;;;;;8.18;3.35;;;;;;;;;;4933649;29;20059;-64
2023/02/07 12:29:21;;;;;;;4.50;1.73;;;;;;;;;;4949149;28;20158;-64
2023/02/07 12:32:07;;;;;;;3.58;1.58;;;;;;;;;;4930134;29;20082;-64
2023/02/07 12:34:48;;;;;;;4.00;1.48;;;;;;;;;;4914896;29;20052;-64
2023/02/07 12:37:21;;;;;;;2.42;1.10;;;;;;;;;;4898621;29;20055;-63
2023/02/07 12:40:20;;;;;;;4.82;1.77;;;;;;;;;;4868320;29;20662;-64
2023/02/07 12:42:58;;;;;;;6.20;2.10;;;;;;;;;;4917695;29;20060;-64
2023/02/07 12:45:39;;;;;;;3.25;1.65;;;;;;;;;;4915414;29;20055;-64
2023/02/07 12:48:09;;;;;;;6.07;2.40;;;;;;;;;;4901975;29;20064;-64
2023/02/07 12:50:44;;;;;;;3.28;1.50;;;;;;;;;;4939621;28;20051;-64
2023/02/07 12:53:33;;;;;;;5.72;1.90;;;;;;;;;;4971901;28;20043;-64
2023/02/07 12:56:14;;;;;;;3.78;1.52;;;;;;;;;;4962544;28;21077;-65
2023/02/07 12:59:15;;;;;;;4.07;1.70;;;;;;;;;;4949562;28;20510;-64
2023/02/07 13:02:27;;;;;;;3.35;1.30;;;;;;;;;;4955243;28;20051;-64
2023/02/07 13:05:30;;;;;;;4.40;1.40;;;;;;;;;;5030343;28;20064;-64
2023/02/07 13:08:35;;;;;;;5.00;1.67;;;;;;;;;;5049911;28;20052;-64
2023/02/07 13:11:28;;;;;;;5.90;1.55;;;;;;;;;;5010399;28;20066;-65
2023/02/07 13:14:15;;;;;;;4.97;2.05;;;;;;;;;;4995554;28;20752;-64
2023/02/07 13:17:20;;;;;;;4.25;1.40;;;;;;;;;;4981614;28;20061;-64
2023/02/07 13:20:20;;;;;;;3.33;1.48;;;;;;;;;;5029964;28;20114;-64
2023/02/07 13:22:56;;;;;;;4.90;1.70;;;;;;;;;;5029171;28;20282;-65
2023/02/07 13:25:40;;;;;;;5.10;1.63;;;;;;;;;;5029648;28;20053;-64
2023/02/07 13:28:29;;;;;;;4.35;1.40;;;;;;;;;;5029394;28;20083;-64
2023/02/07 13:31:00;;;;;;;4.85;1.67;;;;;;;;;;5029621;28;20045;-64
2023/02/07 13:33:35;;;;;;;12.63;2.58;;;;;;;;;;4977106;28;20058;-64
2023/02/07 13:36:35;;;;;;;5.18;1.50;;;;;;;;;;4958527;28;20058;-65
2023/02/07 13:39:21;;;;;;;5.97;1.70;;;;;;;;;;4942761;28;20158;-65
2023/02/07 13:42:49;;;;;;;5.50;1.90;;;;;;;;;;5011942;28;20053;-64
2023/02/07 13:45:53;;;;;;;6.00;2.00;;;;;;;;;;5027300;28;20053;-64
2023/02/07 13:48:54;;;;;;;9.85;1.90;;;;;;;;;;5026599;28;20076;-65
2023/02/07 13:51:30;;;;;;;3.35;1.40;;;;;;;;;;5027286;28;20417;-65
2023/02/07 13:54:36;;;;;;;6.93;1.77;;;;;;;;;;5006991;28;20045;-64
2023/02/07 14:00:34;;;;;;;74.05;19.80;;;;;;;;;;4987182;28;20062;-65
2023/02/07 14:03:05;;;;;;;90.07;26.67;;;;;;;;;;4978120;28;20065;-65
2023/02/07 14:05:42;;;;;;;45.97;11.43;;;;;;;;;;4974408;28;21247;-65
2023/02/07 14:08:16;;;;;;;34.05;6.97;;;;;;;;;;5007322;28;20065;-66
2023/02/07 14:10:55;;;;;;;35.78;7.70;;;;;;;;;;4990862;28;20058;-65
2023/02/07 14:13:26;;;;;;;4.25;1.45;;;;;;;;;;4983598;28;20049;-65
2023/02/07 14:16:03;;;;;;;3.33;1.33;;;;;;;;;;4987491;28;20058;-64
2023/02/07 14:18:39;;;;;;;7.32;2.05;;;;;;;;;;4987407;28;20066;-66
2023/02/07 14:21:18;;;;;;;4.03;1.40;;;;;;;;;;4987095;28;20061;-65
2023/02/07 14:23:57;;;;;;;3.88;1.20;;;;;;;;;;4995537;28;20070;-65
2023/02/07 14:26:39;;;;;;;3.03;1.50;;;;;;;;;;5007011;28;20073;-65
2023/02/07 14:29:21;;;;;;;4.95;1.15;;;;;;;;;;5025886;28;20045;-66
2023/02/07 14:32:21;;;;;;;3.85;1.38;;;;;;;;;;4988138;28;20044;-65
2023/02/07 14:35:03;;;;;;;2.65;1.02;;;;;;;;;;5034557;28;20057;-66
2023/02/07 14:38:13;;;;;;;3.67;1.25;;;;;;;;;;5053589;28;20068;-63
2023/02/07 14:40:43;;;;;;;4.63;1.30;;;;;;;;;;5008960;28;20057;-63
2023/02/07 14:43:13;;;;;;;2.35;0.80;;;;;;;;;;4959996;28;20054;-63
2023/02/07 14:45:55;;;;;;;7.20;1.63;;;;;;;;;;5025130;28;20057;-64
2023/02/07 14:48:49;;;;;;;4.10;1.35;;;;;;;;;;5028395;28;20045;-64
2023/02/07 14:51:29;;;;;;;3.55;1.75;;;;;;;;;;5038381;28;20424;-65
2023/02/07 14:54:16;;;;;;;2.92;1.10;;;;;;;;;;5026357;28;20046;-65
2023/02/07 14:57:01;;;;;;;4.95;1.70;;;;;;;;;;5026488;28;20050;-65
2023/02/07 14:59:31;;;;;;;7.07;1.40;;;;;;;;;;5026225;28;20064;-65
2023/02/07 15:02:32;;;;;;;8.10;4.63;;;;;;;;;;5031238;28;20069;-65
2023/02/07 15:05:26;;;;;;;5.97;1.50;;;;;;;;;;5017863;28;20065;-65
2023/02/07 15:08:02;;;;;;;5.55;1.38;;;;;;;;;;4986831;28;20058;-64
2023/02/07 15:10:43;;;;;;;3.65;1.50;;;;;;;;;;4938745;28;20058;-65
2023/02/07 15:13:20;;;;;;;3.65;1.38;;;;;;;;;;4986999;28;20088;-65
2023/02/07 15:16:18;;;;;;;2.80;1.33;;;;;;;;;;4938393;28;20066;-68
2023/02/07 15:18:57;;;;;;;4.65;1.15;;;;;;;;;;4977458;28;20581;-65
2023/02/07 15:21:41;;;;;;;2.83;1.48;;;;;;;;;;4986927;28;20057;-65
2023/02/07 15:24:26;;;;;;;;;;;;;;;;;;4986756;28;20047;-65
2023/02/07 15:27:03;;;;;;;5.20;1.70;;;;;;;;;;4986908;28;19925;-64
2023/02/07 15:29:37;;;;;;;4.57;1.60;;;;;;;;;;4986508;28;20066;-64
2023/02/07 15:32:40;;;;;;;4.40;1.52;;;;;;;;;;4986602;28;20422;-64
2023/02/07 15:35:17;;;;;;;2.65;1.52;;;;;;;;;;4912428;29;20047;-64
2023/02/07 15:37:48;;;;;;;3.78;1.60;;;;;;;;;;4932201;29;20440;-64
2023/02/07 15:40:22;;;;;;;4.15;1.83;;;;;;;;;;4916851;29;20047;-65
2023/02/07 15:42:56;;;;;;;4.22;1.75;;;;;;;;;;4915914;29;20051;-64